Rechercher aéroport 
image banner adimage banner ad
image banner ad

FYMAL9 - Maltahkalkr9

Situé à , Namibia

ICAO - , IATA -

Données fournies par Airmate  

Information générale

Coordonnées: S24°30'39" E17°11'18"
Élévation : 4438 feet MSL.
 
Voir autres Aéroports à Hardap

Données opérationnelles

Accessible au public
Heure actuelle UTC:
Heure actuelle locale:
Météo à : FYML - Mariental ( 75 km )
METAR: FYML 252200Z AUTO 17007KT //// // ////// 29/16 Q1016
Voir NOTAMs / SUP AIP / TFR affectant cet aéroport [VIEW]
Fréquences de communication: [VIEW]

Pistes:

Coordonnées de l'aéroport

Adresse: Namibia

Vue satellite de FYMAL9